• Join FlightAware (Why Join?)
  • Login
  • US Flag 
03:02PM EST


 

Airport Tracker/Info


-or-


 

Live Flight TrackerFlight Track Log ✈ N53NW ✈ 03-Sep-2013 ✈ KMLB - KTME

Flight Track Log - Related Links

Times and Time Zones

All times are in EDT time to prevent confusion due to time zone crossing. See the N53NW flight status page for this flight to view local times or setup timezone preferences in your user account.

Time Position Orientation Groundspeed Altitude Reporting Facility
EDT Latitude Longitude Course Direction KTS MPH feet Rate Location/Type
10:55AM 28.1000 -80.6833 296° West 197 227 1,400  Level Orlando TRACON
10:56AM 28.1500 -80.8000 296° West 273 314 5,000 2,160 Climbing Orlando TRACON
10:57AM 28.1833 -80.8667 300° West 262 302 7,100 2,520 Climbing Orlando TRACON
10:58AM 28.2500 -80.9167 327° Northwest 274 315 9,900 2,460 Climbing Orlando TRACON
11:00AM 28.3492 -81.0222 317° Northwest 267 307 14,700 1,980 Climbing Jacksonville Center
11:01AM 28.3961 -81.0969 306° West 278 320 16,000 600 Climbing Jacksonville Center
11:02AM 28.4517 -81.1881 305° West 312 359 16,000 -60 Level Jacksonville Center
11:03AM 28.5050 -81.2767 304° West 339 390 15,900 900 Descending Jacksonville Center
11:04AM 28.5019 -81.3808 268° West 316 364 17,800 1,860 Climbing Jacksonville Center
11:05AM 28.4947 -81.4800 265° West 316 364 19,700 1,920 Climbing Jacksonville Center
11:06AM 28.4897 -81.5794 267° West 316 364 21,700 1,980 Climbing Jacksonville Center
11:07AM 28.4822 -81.6739 265° West 310 357 23,700 2,100 Climbing Jacksonville Center
11:08AM 28.4728 -81.7778 264° West 310 357 25,900 1,140 Climbing Jacksonville Center
11:09AM 28.4653 -81.8842 265° West 326 375 26,000 480 Climbing Jacksonville Center
11:10AM 28.4681 -82.0000 272° West 350 403 26,900 1,200 Climbing Jacksonville Center
11:11AM 28.4772 -82.0992 276° West 350 403 28,400 1,620 Climbing Jacksonville Center
11:12AM 28.4903 -82.2075 278° West 355 409 30,200 1,800 Climbing Jacksonville Center
11:13AM 28.5056 -82.3092 280° West 349 402 32,000 1,560 Climbing Jacksonville Center
11:14AM 28.5142 -82.4106 276° West 337 388 33,400 1,380 Climbing Jacksonville Center
11:15AM 28.5250 -82.5144 277° West 331 381 34,800 1,200 Climbing Jacksonville Center
11:16AM 28.5356 -82.6161 277° West 331 381 35,900 1,080 Climbing Jacksonville Center
11:17AM 28.5650 -82.7200 288° West 336 387 37,000 960 Climbing Jacksonville Center
11:18AM 28.6172 -82.8144 302° West 336 387 37,900 840 Climbing Jacksonville Center
11:19AM 28.6736 -82.9067 305° West 352 405 38,700 780 Climbing Jacksonville Center
11:20AM 28.7258 -82.9967 304° West 352 405 39,500 600 Climbing Jacksonville Center
11:21AM 28.7842 -83.0939 304° West 364 419 40,000 240 Climbing Jacksonville Center
11:22AM 28.8444 -83.1983 303° West 381 438 40,000  Level Jacksonville Center
11:23AM 28.9047 -83.3028 303° West 393 452 40,000  Level Jacksonville Center
11:24AM 28.9692 -83.4100 305° West 399 459 40,000  Level Jacksonville Center
11:25AM 29.0292 -83.5078 305° West 394 453 40,000  Level Jacksonville Center
11:26AM 29.0892 -83.6125 303° West 394 453 40,000  Level Jacksonville Center
11:27AM 29.1511 -83.7175 304° West 394 453 40,000  Level Jacksonville Center
11:28AM 29.2131 -83.8253 303° West 394 453 40,000  Level Jacksonville Center
11:29AM 29.2747 -83.9281 305° West 394 453 40,000  Level Jacksonville Center
11:30AM 29.3367 -84.0361 303° West 394 453 40,000  Level Jacksonville Center
11:31AM 29.3983 -84.1392 304° West 394 453 40,000  Level Jacksonville Center
11:32AM 29.4556 -84.2425 302° West 394 453 40,000  Level Jacksonville Center
11:33AM 29.5172 -84.3458 304° West 394 453 40,000  Level Jacksonville Center
11:34AM 29.5764 -84.4494 303° West 394 453 40,000  Level Jacksonville Center
11:35AM 29.6439 -84.5606 305° West 394 453 40,000  Level Jacksonville Center
11:36AM 29.7008 -84.6667 302° West 394 453 40,000  Level Jacksonville Center
11:37AM 29.7600 -84.7706 303° West 394 453 40,000  Level Jacksonville Center
11:38AM 29.8211 -84.8747 304° West 394 453 40,000  Level Jacksonville Center
11:39AM 29.8800 -84.9767 304° West 394 453 40,000  Level Jacksonville Center
11:40AM 29.9367 -85.0761 303° West 388 447 40,000  Level Jacksonville Center
11:41AM 29.9956 -85.1781 304° West 388 447 40,000  Level Jacksonville Center
11:42AM 30.0522 -85.2803 303° West 388 447 40,000  Level Jacksonville Center
11:43AM 30.1089 -85.3728 305° West 394 453 40,000  Level Jacksonville Center
11:44AM 30.1692 -85.4922 300° West 395 455 40,000  Level Jacksonville Center
11:45AM 30.2253 -85.5969 302° West 396 456 40,000  Level Jacksonville Center
11:46AM 30.2858 -85.6900 307° West 399 459 40,000  Level Jacksonville Center
11:47AM 30.3419 -85.7953 302° West 399 459 40,000  Level Jacksonville Center
11:48AM 30.3981 -85.8981 302° West 394 453 40,000  Level Jacksonville Center
11:49AM 30.4244 -86.0144 285° West 380 437 40,000  Level Jacksonville Center
11:50AM 30.4403 -86.1331 279° West 373 429 40,000  Level Jacksonville Center
11:51AM 30.4561 -86.2517 279° West 373 429 40,000  Level Jacksonville Center
11:52AM 30.4714 -86.3775 278° West 379 436 40,000  Level Jacksonville Center
11:53AM 30.4892 -86.4964 280° West 384 442 40,000  Level Jacksonville Center
11:54AM 30.5064 -86.6175 279° West 389 448 40,000  Level Jacksonville Center
11:55AM 30.5217 -86.7411 278° West 389 448 40,000  Level Jacksonville Center
11:56AM 30.5367 -86.8622 278° West 389 448 40,000  Level Jacksonville Center
11:57AM 30.5517 -86.9833 278° West 389 448 40,000  Level Jacksonville Center
11:58AM 30.5686 -87.1022 279° West 389 448 40,000  Level Jacksonville Center
11:59AM 30.5856 -87.2214 279° West 389 448 40,000  Level Jacksonville Center
12:01PM 30.6200 -87.4828 279° West 387 445 40,000  Level Houston Center
12:02PM 30.6319 -87.6067 276° West 387 445 40,000  Level Houston Center
12:03PM 30.6483 -87.7253 279° West 385 443 40,000  Level Houston Center
12:04PM 30.6644 -87.8503 279° West 391 450 40,000  Level Houston Center
12:05PM 30.6806 -87.9753 279° West 392 451 40,000  Level Houston Center
12:06PM 30.6989 -88.1261 278° West 394 453 40,000  Level Houston Center
12:07PM 30.7133 -88.2514 278° West 395 455 40,000  Level Houston Center
12:08PM 30.7261 -88.3778 277° West 395 455 40,000  Level Houston Center
12:09PM 30.7153 -88.5061 264° West 400 460 40,000  Level Houston Center
12:11PM 30.7058 -88.6336 265° West 400 460 40,000  Level Houston Center
12:12PM 30.6956 -88.7628 265° West 401 461 40,000  Level Houston Center
12:13PM 30.6433 -88.9103 248° West 413 475 40,000  Level Houston Center
12:14PM 30.5989 -89.0319 247° West 413 475 40,000  Level Houston Center
12:15PM 30.5519 -89.1544 246° West 414 476 40,000  Level Houston Center
12:16PM 30.5056 -89.2747 246° West 413 475 40,000  Level Houston Center
12:17PM 30.4603 -89.3964 247° West 411 473 40,000  Level Houston Center
12:18PM 30.4142 -89.5169 246° West 410 472 40,000  Level Houston Center
12:19PM 30.3575 -89.6617 246° West 410 472 40,000  Level Houston Center
12:20PM 30.3114 -89.7789 246° West 425 489 40,000  Level Houston Center
12:21PM 30.2578 -89.9217 247° West 417 480 40,000  Level Houston Center
12:22PM 30.2111 -90.0444 246° West 425 489 40,000  Level Houston Center
12:23PM 30.1633 -90.1653 245° Southwest 422 486 40,000  Level Houston Center
12:24PM 30.1167 -90.2856 246° West 416 479 40,000  Level Houston Center
12:25PM 30.0692 -90.4072 246° West 417 480 40,000  Level Houston Center
12:26PM 30.0211 -90.5278 245° Southwest 415 478 40,000  Level Houston Center
12:27PM 29.9642 -90.6739 246° West 417 480 40,000  Level Houston Center
12:28PM 29.9158 -90.7950 245° Southwest 416 479 40,000  Level Houston Center
12:29PM 29.8681 -90.9172 246° West 418 481 40,000  Level Houston Center
12:30PM 29.8206 -91.0389 246° West 419 482 40,000  Level Houston Center
12:31PM 29.7714 -91.1600 245° Southwest 418 481 40,000  Level Houston Center
12:32PM 29.7272 -91.2833 248° West 419 482 40,000  Level Houston Center
12:33PM 29.7089 -91.4403 262° West 414 476 40,000  Level Houston Center
12:34PM 29.6922 -91.5719 262° West 415 478 40,000  Level Houston Center
12:35PM 29.6756 -91.7022 262° West 415 478 40,000  Level Houston Center
12:36PM 29.6553 -91.8439 261° West 417 480 40,000  Level Houston Center
12:37PM 29.6372 -91.9758 261° West 418 481 40,000  Level Houston Center
12:38PM 29.6189 -92.1075 261° West 418 481 40,000  Level Houston Center
12:40PM 29.6003 -92.2389 261° West 417 480 40,000  Level Houston Center
12:41PM 29.5825 -92.3719 261° West 419 482 40,000  Level Houston Center
12:42PM 29.5603 -92.5275 261° West 414 476 40,000  Level Houston Center
12:43PM 29.5419 -92.6586 261° West 415 478 40,000  Level Houston Center
12:44PM 29.5225 -92.7894 260° West 416 479 40,000 -120 Level Houston Center
12:45PM 29.5047 -92.9217 261° West 417 480 39,800 -1,200 Descending Houston Center
12:46PM 29.4847 -93.0536 260° West 419 482 37,500 -2,280 Descending Houston Center
12:47PM 29.4656 -93.1861 261° West 419 482 35,100 -2,520 Descending Houston Center
12:48PM 29.4442 -93.3281 260° West 409 471 32,400 -2,520 Descending Houston Center
12:49PM 29.4267 -93.4497 261° West 395 455 30,000 -2,280 Descending Houston Center
12:50PM 29.4092 -93.5750 261° West 396 456 27,700 -2,280 Descending Houston Center
12:51PM 29.3897 -93.7019 260° West 401 461 25,400 -2,520 Descending Houston Center
12:52PM 29.3669 -93.8511 260° West 399 459 22,600 -2,400 Descending Houston Center
12:53PM 29.3503 -93.9611 260° West 382 440 20,700 -2,040 Descending Houston Center
12:54PM 29.3344 -94.0711 261° West 364 419 18,800 -1,920 Descending Houston Center
12:55PM 29.3189 -94.1669 259° West 348 400 17,200 -1,860 Descending Houston Center
12:56PM 29.3331 -94.2872 278° West 341 392 15,100 -1,980 Descending Houston Center
12:57PM 29.3647 -94.3936 289° West 337 388 13,100 -1,800 Descending Houston Center
12:58PM 29.3922 -94.4811 290° West 333 383 11,600 -1,500 Descending Houston Center
12:59PM 29.4264 -94.5944 289° West 323 372 10,100 -780 Descending Houston Center
01:00PM 29.4522 -94.6847 288° West 299 344 10,000 -60 Descending Houston Center
01:01PM 29.4867 -94.7964 290° West 305 351 10,000  Level Houston Center
01:02PM 29.5083 -94.8769 287° West 311 358 10,000  Level Houston Center
01:03PM 29.5386 -94.9742 290° West 311 358 10,000  Level Houston Center
01:04PM 29.5664 -95.0667 289° West 311 358 10,000  Level Houston Center
01:05PM 29.5947 -95.1667 288° West 313 360 10,000  Level Houston Center
01:06PM 29.6250 -95.2664 289° West 295 339 10,000 -480 Level Houston Center
01:07PM 29.6497 -95.3547 288° West 291 335 9,000 -1,200 Descending Houston Center
01:08PM 29.6717 -95.4339 288° West 284 327 7,700 -1,440 Descending Houston Center
01:09PM 29.6964 -95.5197 288° West 283 326 6,200 -1,620 Descending Houston Center
01:10PM 29.7206 -95.6011 289° West 261 300 4,500 -1,680 Descending Houston Center
01:11PM 29.7447 -95.6825 289° West 252 290 2,900 -1,020 Descending Houston Center
01:13PM 29.7719 -95.7808 288° West 242 278 2,000 -600 Descending Houston Center